Time;durP1;ratioP1;P1;durP2;ratioP2;P2;SDS_P1;SDS_P2;PMS_P1;PMS_P2;Temp;Humidity;BMP_temperature;BMP_pressure;BME280_temperature;BME280_humidity;BME280_pressure;Samples;Min_cycle;Max_cycle;Signal;HPM_P1;HPM_P2
2022/12/16 00:01:10;;;;;;;26.50;13.10;;;-2.90;99.90;;;;;;4977315;28;20022;-80
2022/12/16 00:03:36;;;;;;;25.33;14.02;;;-2.90;99.90;;;;;;4995983;28;20058;-81
2022/12/16 00:06:03;;;;;;;21.08;11.60;;;-2.80;99.90;;;;;;5001588;28;20042;-79
2022/12/16 00:08:31;;;;;;;25.15;14.32;;;-2.80;99.90;;;;;;4994766;28;20113;-80
2022/12/16 00:10:59;;;;;;;33.13;15.18;;;-2.70;99.90;;;;;;4994888;28;20023;-79
2022/12/16 00:13:25;;;;;;;;;;;-2.60;99.90;;;;;;4984098;28;20034;-78
2022/12/16 00:15:50;;;;;;;29.00;14.25;;;-2.60;99.90;;;;;;4994919;28;20402;-77
2022/12/16 00:18:18;;;;;;;28.33;15.80;;;-2.60;99.90;;;;;;4994520;28;20040;-79
2022/12/16 00:20:46;;;;;;;32.75;16.25;;;-2.60;99.90;;;;;;4994465;28;20045;-79
2022/12/16 00:23:12;;;;;;;21.58;14.20;;;-2.50;99.90;;;;;;4994254;28;20121;-79
2022/12/16 00:25:41;;;;;;;22.85;13.63;;;-2.50;99.90;;;;;;4994003;28;20046;-78
2022/12/16 00:28:07;;;;;;;26.92;14.48;;;-2.40;99.90;;;;;;4993730;28;20053;-78
2022/12/16 00:30:32;;;;;;;20.05;12.27;;;-2.40;99.90;;;;;;4994297;28;20022;-80
2022/12/16 00:32:58;;;;;;;26.92;14.85;;;-2.40;99.90;;;;;;4994373;28;20057;-79
2022/12/16 00:35:24;;;;;;;20.60;12.38;;;-2.40;99.90;;;;;;4994207;28;20449;-79
2022/12/16 00:37:50;;;;;;;30.10;14.32;;;-2.40;99.90;;;;;;4994148;28;20030;-81
2022/12/16 00:40:16;;;;;;;27.92;14.48;;;-2.40;99.90;;;;;;4994359;28;20409;-83
2022/12/16 00:42:42;;;;;;;22.67;13.05;;;-2.40;99.90;;;;;;4994204;28;20117;-81
2022/12/16 00:45:08;;;;;;;20.58;12.75;;;-2.40;99.90;;;;;;4994285;28;20121;-79
2022/12/16 00:47:34;;;;;;;20.98;12.00;;;-2.30;99.90;;;;;;4992843;28;20050;-80
2022/12/16 00:49:59;;;;;;;18.67;10.40;;;-2.30;99.90;;;;;;4993537;28;20500;-79
2022/12/16 00:52:25;;;;;;;24.40;12.43;;;-2.30;99.90;;;;;;4993662;28;20023;-79
2022/12/16 00:54:51;;;;;;;16.90;8.73;;;-2.30;99.90;;;;;;4976354;28;20133;-80
2022/12/16 00:57:17;;;;;;;21.13;12.15;;;-2.30;99.90;;;;;;4982569;28;20035;-78
2022/12/16 00:59:43;;;;;;;26.45;13.98;;;-2.30;99.90;;;;;;4985088;28;20518;-78
2022/12/16 01:02:09;;;;;;;25.25;12.48;;;-2.30;99.90;;;;;;4993637;28;20023;-80
2022/12/16 01:04:36;;;;;;;23.13;13.07;;;-2.30;99.90;;;;;;4993573;28;20084;-79
2022/12/16 01:07:02;;;;;;;23.52;14.45;;;-2.20;99.90;;;;;;4996711;28;20027;-79
2022/12/16 01:09:27;;;;;;;24.67;13.50;;;-2.20;99.90;;;;;;4994826;28;20034;-78
2022/12/16 01:11:53;;;;;;;24.02;12.38;;;-2.20;99.90;;;;;;4986714;28;20049;-80
2022/12/16 01:14:19;;;;;;;23.00;13.73;;;-2.20;99.90;;;;;;4986593;28;20026;-80
2022/12/16 01:16:45;;;;;;;23.20;13.65;;;-2.20;99.90;;;;;;4976064;28;20026;-82
2022/12/16 01:19:11;;;;;;;23.67;12.38;;;-2.20;99.90;;;;;;4993785;28;20032;-81
2022/12/16 01:21:37;;;;;;;21.52;12.52;;;-2.10;99.90;;;;;;4993624;28;20029;-80
2022/12/16 01:24:03;;;;;;;19.20;10.27;;;-2.10;99.90;;;;;;4988005;28;20038;-80
2022/12/16 01:26:30;;;;;;;21.33;12.60;;;-2.10;99.90;;;;;;4998965;28;20426;-80
2022/12/16 01:28:56;;;;;;;19.25;11.93;;;-2.10;99.90;;;;;;4976222;28;20022;-81
2022/12/16 01:31:23;;;;;;;22.08;13.30;;;-2.10;99.90;;;;;;4987647;28;20030;-79
2022/12/16 01:33:49;;;;;;;21.98;12.18;;;-2.10;99.90;;;;;;4976888;28;20026;-81
2022/12/16 01:36:16;;;;;;;21.95;11.55;;;-2.10;99.90;;;;;;4995354;28;20026;-83
2022/12/16 01:38:43;;;;;;;18.70;11.35;;;-2.10;99.90;;;;;;4995861;28;20053;-79
2022/12/16 01:41:11;;;;;;;18.42;11.35;;;-2.00;99.90;;;;;;4979573;28;20046;-80
2022/12/16 01:43:38;;;;;;;20.88;12.60;;;-2.00;99.90;;;;;;4977464;28;20384;-80
2022/12/16 01:46:11;;;;;;;;;;;-2.00;99.90;;;;;;4980469;28;20042;-80
2022/12/16 01:48:49;;;;;;;20.25;10.90;;;-2.00;99.90;;;;;;4975427;28;19906;-79
2022/12/16 01:51:22;;;;;;;17.83;11.38;;;-1.90;99.90;;;;;;4992442;28;20034;-80
2022/12/16 01:53:51;;;;;;;25.17;12.30;;;-2.00;99.90;;;;;;4992922;28;20018;-81
2022/12/16 01:56:20;;;;;;;23.15;13.00;;;-1.90;99.90;;;;;;4992378;28;20483;-80
2022/12/16 01:58:46;;;;;;;17.63;10.05;;;-1.90;99.90;;;;;;4993144;28;20023;-81
2022/12/16 02:01:15;;;;;;;16.90;10.48;;;-1.80;99.90;;;;;;4990400;28;20054;-79
2022/12/16 02:03:41;;;;;;;21.77;12.55;;;-1.80;99.90;;;;;;4980736;28;20114;-79
2022/12/16 02:06:07;;;;;;;18.27;9.50;;;-1.80;99.90;;;;;;4992612;28;20169;-80
2022/12/16 02:08:34;;;;;;;21.92;11.90;;;-1.80;99.90;;;;;;4992648;28;20436;-80
2022/12/16 02:11:14;;;;;;;18.30;10.60;;;-1.70;99.90;;;;;;4992560;28;20488;-79
2022/12/16 02:14:12;;;;;;;21.77;10.70;;;-1.70;99.90;;;;;;4994242;28;20033;-79
2022/12/16 02:17:10;;;;;;;18.90;11.40;;;-1.70;99.90;;;;;;4994189;28;20038;-81
2022/12/16 02:19:48;;;;;;;17.55;9.82;;;-1.70;99.90;;;;;;4975767;28;20121;-81
2022/12/16 02:22:34;;;;;;;20.73;12.70;;;-1.60;99.90;;;;;;4992225;28;20018;-80
2022/12/16 02:25:21;;;;;;;19.30;11.10;;;-1.60;99.90;;;;;;4992432;28;20030;-79
2022/12/16 02:28:01;;;;;;;18.60;10.73;;;-1.60;99.90;;;;;;4980607;28;20057;-81
2022/12/16 02:30:50;;;;;;;15.00;8.50;;;-1.50;99.90;;;;;;4992007;28;20030;-80
2022/12/16 02:33:38;;;;;;;15.68;9.70;;;-1.50;99.90;;;;;;4982167;28;20037;-80
2022/12/16 02:36:13;;;;;;;16.23;10.48;;;-1.50;99.90;;;;;;4974875;28;20420;-79
2022/12/16 02:39:00;;;;;;;17.27;9.32;;;-1.50;99.90;;;;;;4992081;28;20018;-80
2022/12/16 02:41:32;;;;;;;12.68;9.40;;;-1.40;99.90;;;;;;4962113;28;20464;-78
2022/12/16 02:44:03;;;;;;;14.90;8.52;;;-1.40;99.90;;;;;;4974570;28;20039;-79
2022/12/16 02:46:32;;;;;;;16.75;10.38;;;-1.40;99.90;;;;;;4978843;28;20043;-79
2022/12/16 02:49:11;;;;;;;17.10;10.38;;;-1.30;99.90;;;;;;4992037;28;20022;-79
2022/12/16 02:51:37;;;;;;;19.35;12.30;;;-1.30;99.90;;;;;;4982846;28;20022;-79
2022/12/16 02:54:06;;;;;;;17.98;11.10;;;-1.30;99.90;;;;;;4996050;28;20126;-79
2022/12/16 02:57:32;;;;;;;15.50;9.57;;;-1.30;99.90;;;;;;4978486;28;20050;-80
2022/12/16 03:00:14;;;;;;;15.80;9.93;;;-1.20;99.90;;;;;;4916515;29;20525;-79
2022/12/16 03:03:19;;;;;;;20.08;11.60;;;-1.20;99.90;;;;;;4916282;29;20033;-79
2022/12/16 03:05:47;;;;;;;18.02;10.70;;;-1.10;99.90;;;;;;4970266;28;20050;-80
2022/12/16 03:08:30;;;;;;;15.77;10.75;;;-1.10;99.90;;;;;;4979326;28;20022;-79
2022/12/16 03:11:00;;;;;;;15.68;8.45;;;-1.10;99.90;;;;;;4995981;28;20065;-79
2022/12/16 03:13:31;;;;;;;15.48;10.30;;;-1.10;99.90;;;;;;4995692;28;20480;-80
2022/12/16 03:15:59;;;;;;;16.67;10.68;;;-1.20;99.90;;;;;;4995739;28;20057;-79
2022/12/16 03:18:25;;;;;;;16.25;10.95;;;-1.10;99.90;;;;;;4995550;28;20018;-79
2022/12/16 03:20:59;;;;;;;20.92;13.00;;;-1.10;99.90;;;;;;4995918;28;20023;-80
2022/12/16 03:23:32;;;;;;;19.40;11.05;;;-1.10;99.90;;;;;;4980190;28;20046;-80
2022/12/16 03:26:06;;;;;;;18.95;12.20;;;-1.10;99.90;;;;;;5000315;28;20022;-81
2022/12/16 03:28:42;;;;;;;21.23;12.27;;;-1.00;99.90;;;;;;5000019;28;20022;-80
2022/12/16 03:31:14;;;;;;;15.60;11.60;;;-1.00;99.90;;;;;;4990774;28;20022;-81
2022/12/16 03:34:15;;;;;;;17.10;10.88;;;-1.00;99.90;;;;;;4988260;28;20026;-79
2022/12/16 03:36:48;;;;;;;19.73;12.45;;;-1.00;99.90;;;;;;4970136;28;20039;-81
2022/12/16 03:39:15;;;;;;;18.83;10.65;;;-1.00;99.90;;;;;;4996563;28;20031;-81
2022/12/16 03:41:43;;;;;;;15.57;11.32;;;-0.90;99.90;;;;;;4998177;28;20037;-80
2022/12/16 03:44:09;;;;;;;17.40;11.52;;;-0.90;99.90;;;;;;4996244;28;20092;-79
2022/12/16 03:46:35;;;;;;;17.38;11.30;;;-1.00;99.90;;;;;;4994922;28;20085;-80
2022/12/16 03:49:01;;;;;;;19.13;11.55;;;-1.00;99.90;;;;;;4994761;28;20038;-80
2022/12/16 03:51:27;;;;;;;16.52;10.45;;;-0.90;99.90;;;;;;4994807;28;20023;-83
2022/12/16 03:53:53;;;;;;;17.45;9.63;;;-0.90;99.90;;;;;;4975022;28;20468;-81
2022/12/16 03:56:19;;;;;;;19.63;11.05;;;-0.90;99.90;;;;;;4994922;28;20029;-81
2022/12/16 03:58:45;;;;;;;14.60;10.32;;;-0.90;99.90;;;;;;4995246;28;20057;-82
2022/12/16 04:01:13;;;;;;;14.45;9.45;;;-0.90;99.90;;;;;;4975084;28;20062;-81
2022/12/16 04:03:38;;;;;;;17.88;12.23;;;-0.90;99.90;;;;;;4970978;28;20066;-81
2022/12/16 04:06:05;;;;;;;20.58;11.20;;;-0.90;99.90;;;;;;4994556;28;20447;-81
2022/12/16 04:08:30;;;;;;;15.20;10.32;;;-0.90;99.90;;;;;;4994637;28;20091;-82
2022/12/16 04:24:53;;;;;;;14.18;8.70;;;-0.80;99.90;;;;;;4988885;28;20033;-82
2022/12/16 04:27:24;;;;;;;15.32;9.30;;;-0.80;99.90;;;;;;4994903;28;20018;-82
